createdAt,value
2022-10-23T00:07:56.155Z,99.99
2022-10-23T00:17:56.316Z,99.99
2022-10-23T00:27:56.516Z,99.99
2022-10-23T00:37:56.865Z,99.99
2022-10-23T00:47:56.845Z,99.99
2022-10-23T00:57:56.998Z,99.99
2022-10-23T01:07:57.174Z,99.99
2022-10-23T01:17:57.312Z,99.99
2022-10-23T01:27:57.517Z,99.99
2022-10-23T01:37:57.657Z,99.99
2022-10-23T01:47:57.911Z,99.99
2022-10-23T01:57:57.967Z,99.99
2022-10-23T02:07:58.152Z,99.99
2022-10-23T02:17:58.288Z,99.99
2022-10-23T02:27:58.493Z,99.99
2022-10-23T02:37:58.630Z,99.99
2022-10-23T02:47:58.829Z,99.99
2022-10-23T02:57:58.987Z,99.99
2022-10-23T03:07:59.171Z,99.99
2022-10-23T03:17:59.315Z,99.99
2022-10-23T03:27:59.513Z,99.99
2022-10-23T03:37:59.647Z,99.99
2022-10-23T03:47:59.838Z,99.99
2022-10-23T03:57:59.987Z,99.99
2022-10-23T04:08:00.170Z,99.99
2022-10-23T04:18:00.306Z,99.99
2022-10-23T04:28:00.482Z,99.99
2022-10-23T04:38:00.614Z,99.99
2022-10-23T04:48:01.075Z,99.99
2022-10-23T04:58:01.021Z,99.99
2022-10-23T05:08:01.220Z,99.99
2022-10-23T05:18:01.360Z,99.99
2022-10-23T05:28:01.549Z,99.99
2022-10-23T05:38:01.677Z,99.99
2022-10-23T05:48:10.854Z,99.99
2022-10-23T05:58:03.021Z,99.99
2022-10-23T06:08:02.215Z,99.99
2022-10-23T06:18:02.371Z,99.99
2022-10-23T06:28:02.595Z,99.99
2022-10-23T06:38:02.720Z,99.99
2022-10-23T06:48:02.916Z,99.99
2022-10-23T06:58:03.064Z,99.99
2022-10-23T07:08:03.269Z,99.99
2022-10-23T07:18:03.339Z,99.99
2022-10-23T07:28:03.522Z,99.99
2022-10-23T07:38:03.681Z,97.89
2022-10-23T07:48:03.883Z,95.46
2022-10-23T07:58:04.189Z,95.76
2022-10-23T08:08:04.269Z,90.49
2022-10-23T08:18:04.412Z,95.01
2022-10-23T08:28:06.314Z,96.79
2022-10-23T08:38:04.726Z,93.29
2022-10-23T08:48:04.914Z,91.74
2022-10-23T08:58:05.235Z,89.79
2022-10-23T09:08:05.194Z,88.79
2022-10-23T09:18:05.321Z,88.15
2022-10-23T09:28:05.927Z,86.63
2022-10-23T09:38:05.685Z,81.42
2022-10-23T09:48:06.448Z,83.95
2022-10-23T09:58:06.036Z,82.54
2022-10-23T10:08:06.220Z,79.94
2022-10-23T10:18:06.352Z,77.66
2022-10-23T10:28:06.534Z,73.77
2022-10-23T10:38:06.668Z,74.27
2022-10-23T10:48:06.875Z,73.03
2022-10-23T10:58:07.025Z,72.00
2022-10-23T11:08:07.342Z,70.23
2022-10-23T11:18:07.374Z,75.26
2022-10-23T11:28:10.573Z,75.54
2022-10-23T11:38:07.676Z,77.34
2022-10-23T11:48:08.145Z,77.67
2022-10-23T11:58:07.960Z,80.08
2022-10-23T12:08:08.147Z,74.37
2022-10-23T12:18:08.338Z,76.06
2022-10-23T12:28:08.422Z,73.55
2022-10-23T12:38:08.562Z,70.95
2022-10-23T12:48:08.766Z,70.76
2022-10-23T12:58:08.926Z,71.58
2022-10-23T13:08:09.114Z,69.02
2022-10-23T13:18:09.252Z,67.27
2022-10-23T13:28:09.433Z,67.63
2022-10-23T13:38:09.568Z,63.66
2022-10-23T13:48:09.893Z,72.68
2022-10-23T13:58:09.931Z,75.20
2022-10-23T14:08:10.109Z,78.34
2022-10-23T14:18:10.246Z,82.09
2022-10-23T14:28:10.435Z,84.91
2022-10-23T14:38:10.578Z,86.54
2022-10-23T14:48:10.996Z,86.58
2022-10-23T14:58:10.926Z,85.05
2022-10-23T15:08:11.106Z,76.07
2022-10-23T15:18:11.223Z,61.82
2022-10-23T15:28:11.407Z,65.05
2022-10-23T15:38:11.542Z,76.58
2022-10-23T15:48:11.743Z,78.64
2022-10-23T15:58:11.894Z,77.73
2022-10-23T16:08:12.082Z,78.67
2022-10-23T16:18:12.248Z,73.81
2022-10-23T16:28:12.454Z,67.94
2022-10-23T16:38:12.609Z,66.47
2022-10-23T16:48:12.843Z,55.62
2022-10-23T16:58:13.065Z,54.19
2022-10-23T17:08:13.375Z,54.97
2022-10-23T17:18:13.302Z,55.99
2022-10-23T17:28:13.383Z,57.85
2022-10-23T17:38:13.562Z,57.95
2022-10-23T17:48:13.774Z,56.72
2022-10-23T17:58:14.112Z,56.92
2022-10-23T18:08:14.106Z,56.42
2022-10-23T18:18:14.255Z,54.99
2022-10-23T18:28:14.459Z,57.02
2022-10-23T18:38:14.601Z,58.05
2022-10-23T18:48:14.802Z,57.42
2022-10-23T18:58:14.955Z,59.05
2022-10-23T19:08:15.131Z,60.18
2022-10-23T19:18:15.259Z,58.85
2022-10-23T19:28:15.452Z,57.42
2022-10-23T19:38:15.585Z,53.84
2022-10-23T19:48:15.781Z,52.94
2022-10-23T19:58:15.931Z,56.82
2022-10-23T20:08:16.118Z,62.34
2022-10-23T20:18:16.258Z,61.74
2022-10-23T20:28:16.466Z,63.54
2022-10-23T20:38:16.590Z,63.37
2022-10-23T20:48:16.788Z,66.55
2022-10-23T20:58:16.939Z,70.16
2022-10-23T21:08:17.126Z,68.41
2022-10-23T21:18:26.391Z,68.75
2022-10-23T21:28:18.455Z,69.79
2022-10-23T21:38:17.596Z,71.73
2022-10-23T21:48:17.801Z,69.59
2022-10-23T21:58:17.943Z,70.19
2022-10-23T22:08:18.125Z,71.13
2022-10-23T22:18:18.263Z,73.21
2022-10-23T22:28:18.445Z,75.56
2022-10-23T22:38:18.577Z,76.31
2022-10-23T22:48:18.813Z,77.25
2022-10-23T22:58:18.854Z,77.04
2022-10-23T23:08:19.030Z,76.20
2022-10-23T23:18:19.160Z,76.10
2022-10-23T23:28:19.342Z,74.35
2022-10-23T23:38:19.474Z,73.11
2022-10-23T23:48:19.673Z,69.72
2022-10-23T23:58:20.118Z,69.32
